sensor_id;sensor_type;location;lat;lon;timestamp;pressure;altitude;pressure_sealevel;temperature;humidity
62928;BME280;51070;52.236;-0.892;2023-10-09T00:01:05;101293.98;;;16.45;64.26
62928;BME280;51070;52.236;-0.892;2023-10-09T00:03:46;101297.45;;;16.44;64.45
62928;BME280;51070;52.236;-0.892;2023-10-09T00:06:17;101302.83;;;16.43;64.35
62928;BME280;51070;52.236;-0.892;2023-10-09T00:08:46;101291.45;;;16.41;64.32
62928;BME280;51070;52.236;-0.892;2023-10-09T00:11:16;101285.85;;;16.39;64.26
62928;BME280;51070;52.236;-0.892;2023-10-09T00:13:47;101285.45;;;16.36;64.15
62928;BME280;51070;52.236;-0.892;2023-10-09T00:16:19;101274.05;;;16.33;63.96
62928;BME280;51070;52.236;-0.892;2023-10-09T00:19:02;101282.20;;;16.30;64.06
62928;BME280;51070;52.236;-0.892;2023-10-09T00:21:49;101283.41;;;16.29;64.00
62928;BME280;51070;52.236;-0.892;2023-10-09T00:24:15;101276.55;;;16.26;63.85
62928;BME280;51070;52.236;-0.892;2023-10-09T00:26:51;101281.05;;;16.25;63.89
62928;BME280;51070;52.236;-0.892;2023-10-09T00:29:17;101283.84;;;16.24;63.75
62928;BME280;51070;52.236;-0.892;2023-10-09T00:31:52;101280.86;;;16.23;63.66
62928;BME280;51070;52.236;-0.892;2023-10-09T00:34:29;101277.54;;;16.22;63.45
62928;BME280;51070;52.236;-0.892;2023-10-09T00:36:55;101271.76;;;16.22;63.41
62928;BME280;51070;52.236;-0.892;2023-10-09T00:39:23;101269.13;;;16.22;63.35
62928;BME280;51070;52.236;-0.892;2023-10-09T00:41:59;101268.09;;;16.21;63.16
62928;BME280;51070;52.236;-0.892;2023-10-09T00:44:27;101265.11;;;16.21;63.04
62928;BME280;51070;52.236;-0.892;2023-10-09T00:47:08;101261.46;;;16.21;62.95
62928;BME280;51070;52.236;-0.892;2023-10-09T00:49:59;101262.30;;;16.20;63.03
62928;BME280;51070;52.236;-0.892;2023-10-09T00:52:32;101260.56;;;16.19;62.96
62928;BME280;51070;52.236;-0.892;2023-10-09T00:55:20;101267.00;;;16.19;62.88
62928;BME280;51070;52.236;-0.892;2023-10-09T00:58:08;101272.23;;;16.18;63.01
62928;BME280;51070;52.236;-0.892;2023-10-09T01:00:40;101273.44;;;16.18;62.91
62928;BME280;51070;52.236;-0.892;2023-10-09T01:03:09;101273.77;;;16.17;62.84
62928;BME280;51070;52.236;-0.892;2023-10-09T01:05:45;101272.17;;;16.16;62.87
62928;BME280;51070;52.236;-0.892;2023-10-09T01:08:23;101266.58;;;16.15;62.77
62928;BME280;51070;52.236;-0.892;2023-10-09T01:11:13;101265.70;;;16.15;62.81
62928;BME280;51070;52.236;-0.892;2023-10-09T01:13:49;101268.82;;;16.14;62.74
62928;BME280;51070;52.236;-0.892;2023-10-09T01:16:27;101266.56;;;16.13;62.91
62928;BME280;51070;52.236;-0.892;2023-10-09T01:18:56;101262.20;;;16.14;62.85
62928;BME280;51070;52.236;-0.892;2023-10-09T01:21:23;101258.37;;;16.15;62.73
62928;BME280;51070;52.236;-0.892;2023-10-09T01:23:52;101256.80;;;16.15;62.93
62928;BME280;51070;52.236;-0.892;2023-10-09T01:29:08;101243.92;;;16.16;62.73
62928;BME280;51070;52.236;-0.892;2023-10-09T01:31:50;101242.36;;;16.16;62.73
62928;BME280;51070;52.236;-0.892;2023-10-09T01:34:35;101241.52;;;16.18;62.65
62928;BME280;51070;52.236;-0.892;2023-10-09T01:37:08;101244.52;;;16.19;62.72
62928;BME280;51070;52.236;-0.892;2023-10-09T01:39:40;101245.58;;;16.19;62.81
62928;BME280;51070;52.236;-0.892;2023-10-09T01:42:08;101245.75;;;16.19;62.81
62928;BME280;51070;52.236;-0.892;2023-10-09T01:44:34;101244.34;;;16.20;62.89
62928;BME280;51070;52.236;-0.892;2023-10-09T01:47:02;101241.75;;;16.21;62.69
62928;BME280;51070;52.236;-0.892;2023-10-09T01:49:35;101238.79;;;16.21;62.84
62928;BME280;51070;52.236;-0.892;2023-10-09T01:52:03;101232.16;;;16.22;62.78
62928;BME280;51070;52.236;-0.892;2023-10-09T01:54:38;101232.17;;;16.22;62.84
62928;BME280;51070;52.236;-0.892;2023-10-09T01:57:08;101231.84;;;16.22;62.95
62928;BME280;51070;52.236;-0.892;2023-10-09T01:59:44;101229.91;;;16.22;63.03
62928;BME280;51070;52.236;-0.892;2023-10-09T02:02:16;101228.52;;;16.22;63.10
62928;BME280;51070;52.236;-0.892;2023-10-09T02:04:52;101230.44;;;16.22;63.14
62928;BME280;51070;52.236;-0.892;2023-10-09T02:07:18;101229.20;;;16.22;63.30
62928;BME280;51070;52.236;-0.892;2023-10-09T02:09:53;101227.27;;;16.21;63.40
62928;BME280;51070;52.236;-0.892;2023-10-09T02:12:19;101220.45;;;16.20;63.46
62928;BME280;51070;52.236;-0.892;2023-10-09T02:14:47;101221.14;;;16.20;63.51
62928;BME280;51070;52.236;-0.892;2023-10-09T02:17:12;101219.76;;;16.19;63.54
62928;BME280;51070;52.236;-0.892;2023-10-09T02:19:44;101219.58;;;16.19;63.67
62928;BME280;51070;52.236;-0.892;2023-10-09T02:22:15;101219.23;;;16.19;63.61
62928;BME280;51070;52.236;-0.892;2023-10-09T02:24:42;101214.88;;;16.19;63.52
62928;BME280;51070;52.236;-0.892;2023-10-09T02:27:19;101211.04;;;16.19;63.58
62928;BME280;51070;52.236;-0.892;2023-10-09T02:30:04;101205.98;;;16.20;63.69
62928;BME280;51070;52.236;-0.892;2023-10-09T02:32:45;101202.32;;;16.20;63.67
62928;BME280;51070;52.236;-0.892;2023-10-09T02:35:17;101202.50;;;16.20;63.69
62928;BME280;51070;52.236;-0.892;2023-10-09T02:38:12;101200.76;;;16.20;63.78
62928;BME280;51070;52.236;-0.892;2023-10-09T02:40:40;101200.58;;;16.20;63.82
62928;BME280;51070;52.236;-0.892;2023-10-09T02:43:30;101204.77;;;16.20;63.82
62928;BME280;51070;52.236;-0.892;2023-10-09T02:46:18;101214.37;;;16.21;63.81
62928;BME280;51070;52.236;-0.892;2023-10-09T02:48:48;101214.73;;;16.21;63.96
62928;BME280;51070;52.236;-0.892;2023-10-09T02:51:22;101219.25;;;16.21;63.95
62928;BME280;51070;52.236;-0.892;2023-10-09T02:54:08;101216.81;;;16.20;63.97
62928;BME280;51070;52.236;-0.892;2023-10-09T02:56:51;101208.61;;;16.21;63.96
62928;BME280;51070;52.236;-0.892;2023-10-09T02:59:35;101208.60;;;16.21;63.75
62928;BME280;51070;52.236;-0.892;2023-10-09T03:02:03;101204.07;;;16.21;63.82
62928;BME280;51070;52.236;-0.892;2023-10-09T03:04:29;101197.97;;;16.20;63.86
62928;BME280;51070;52.236;-0.892;2023-10-09T03:06:57;101189.95;;;16.21;63.88
62928;BME280;51070;52.236;-0.892;2023-10-09T03:09:24;101182.45;;;16.20;63.82
62928;BME280;51070;52.236;-0.892;2023-10-09T03:11:55;101182.98;;;16.21;63.96
62928;BME280;51070;52.236;-0.892;2023-10-09T03:14:25;101179.48;;;16.20;63.97
62928;BME280;51070;52.236;-0.892;2023-10-09T03:16:52;101175.98;;;16.20;64.04
62928;BME280;51070;52.236;-0.892;2023-10-09T03:19:18;101175.66;;;16.21;64.15
62928;BME280;51070;52.236;-0.892;2023-10-09T03:21:43;101176.00;;;16.21;64.29
62928;BME280;51070;52.236;-0.892;2023-10-09T03:24:09;101178.61;;;16.20;64.29
62928;BME280;51070;52.236;-0.892;2023-10-09T03:26:36;101184.89;;;16.21;64.30
62928;BME280;51070;52.236;-0.892;2023-10-09T03:29:02;101183.83;;;16.20;64.50
62928;BME280;51070;52.236;-0.892;2023-10-09T03:31:32;101188.55;;;16.20;64.70
62928;BME280;51070;52.236;-0.892;2023-10-09T03:33:59;101197.96;;;16.20;64.76
62928;BME280;51070;52.236;-0.892;2023-10-09T03:36:25;101202.70;;;16.22;64.84
62928;BME280;51070;52.236;-0.892;2023-10-09T03:38:54;101208.48;;;16.23;64.96
62928;BME280;51070;52.236;-0.892;2023-10-09T03:41:21;101212.69;;;16.24;64.99
62928;BME280;51070;52.236;-0.892;2023-10-09T03:43:46;101214.61;;;16.25;65.13
62928;BME280;51070;52.236;-0.892;2023-10-09T03:46:12;101219.16;;;16.26;65.27
62928;BME280;51070;52.236;-0.892;2023-10-09T03:48:41;101217.58;;;16.25;65.23
62928;BME280;51070;52.236;-0.892;2023-10-09T03:51:10;101215.14;;;16.25;65.33
62928;BME280;51070;52.236;-0.892;2023-10-09T03:53:40;101207.13;;;16.26;65.34
62928;BME280;51070;52.236;-0.892;2023-10-09T03:56:07;101197.20;;;16.26;65.32
62928;BME280;51070;52.236;-0.892;2023-10-09T03:58:42;101187.09;;;16.27;65.26
62928;BME280;51070;52.236;-0.892;2023-10-09T04:01:13;101186.39;;;16.27;65.24
62928;BME280;51070;52.236;-0.892;2023-10-09T04:03:48;101194.21;;;16.25;65.39
62928;BME280;51070;52.236;-0.892;2023-10-09T04:06:14;101194.56;;;16.25;65.38
62928;BME280;51070;52.236;-0.892;2023-10-09T04:08:44;101198.73;;;16.24;65.43
62928;BME280;51070;52.236;-0.892;2023-10-09T04:11:13;101208.69;;;16.24;65.46
62928;BME280;51070;52.236;-0.892;2023-10-09T04:13:45;101217.74;;;16.24;65.50
62928;BME280;51070;52.236;-0.892;2023-10-09T04:16:15;101222.79;;;16.23;65.52
62928;BME280;51070;52.236;-0.892;2023-10-09T04:19:01;101219.81;;;16.22;65.56
62928;BME280;51070;52.236;-0.892;2023-10-09T04:21:36;101214.71;;;16.21;65.66
62928;BME280;51070;52.236;-0.892;2023-10-09T04:24:07;101216.27;;;16.20;65.67
62928;BME280;51070;52.236;-0.892;2023-10-09T04:26:50;101213.48;;;16.19;65.70
62928;BME280;51070;52.236;-0.892;2023-10-09T04:29:23;101212.79;;;16.19;65.72
62928;BME280;51070;52.236;-0.892;2023-10-09T04:31:56;101212.09;;;16.20;65.76
62928;BME280;51070;52.236;-0.892;2023-10-09T04:34:22;101220.47;;;16.21;65.92
62928;BME280;51070;52.236;-0.892;2023-10-09T04:36:49;101224.69;;;16.22;65.83
62928;BME280;51070;52.236;-0.892;2023-10-09T04:39:16;101222.80;;;16.24;65.86
62928;BME280;51070;52.236;-0.892;2023-10-09T04:42:02;101214.29;;;16.26;65.84
62928;BME280;51070;52.236;-0.892;2023-10-09T04:44:45;101213.27;;;16.28;65.80
62928;BME280;51070;52.236;-0.892;2023-10-09T04:47:34;101214.87;;;16.29;65.84
62928;BME280;51070;52.236;-0.892;2023-10-09T04:50:24;101215.56;;;16.30;65.88
62928;BME280;51070;52.236;-0.892;2023-10-09T04:52:52;101223.77;;;16.30;65.93
62928;BME280;51070;52.236;-0.892;2023-10-09T04:55:18;101230.74;;;16.31;65.90
62928;BME280;51070;52.236;-0.892;2023-10-09T04:57:51;101224.65;;;16.30;65.97
62928;BME280;51070;52.236;-0.892;2023-10-09T05:00:39;101224.29;;;16.29;66.10
62928;BME280;51070;52.236;-0.892;2023-10-09T05:03:07;101227.92;;;16.28;66.13
62928;BME280;51070;52.236;-0.892;2023-10-09T05:05:32;101225.45;;;16.26;66.31
62928;BME280;51070;52.236;-0.892;2023-10-09T05:08:14;101222.28;;;16.24;66.38
62928;BME280;51070;52.236;-0.892;2023-10-09T05:10:47;101226.61;;;16.23;66.32
62928;BME280;51070;52.236;-0.892;2023-10-09T05:16:18;101220.08;;;16.18;66.57
62928;BME280;51070;52.236;-0.892;2023-10-09T05:18:45;101228.56;;;16.15;66.73
62928;BME280;51070;52.236;-0.892;2023-10-09T05:21:22;101230.09;;;16.12;67.02
62928;BME280;51070;52.236;-0.892;2023-10-09T05:24:00;101230.73;;;16.10;67.18
62928;BME280;51070;52.236;-0.892;2023-10-09T05:26:40;101235.08;;;16.08;67.24
62928;BME280;51070;52.236;-0.892;2023-10-09T05:29:15;101249.54;;;16.08;67.40
62928;BME280;51070;52.236;-0.892;2023-10-09T05:32:06;101260.88;;;16.08;67.51
62928;BME280;51070;52.236;-0.892;2023-10-09T05:34:37;101256.88;;;16.08;67.50
62928;BME280;51070;52.236;-0.892;2023-10-09T05:37:24;101254.80;;;16.10;67.53
62928;BME280;51070;52.236;-0.892;2023-10-09T05:40:06;101247.30;;;16.10;67.63
62928;BME280;51070;52.236;-0.892;2023-10-09T05:42:51;101247.33;;;16.11;67.77
62928;BME280;51070;52.236;-0.892;2023-10-09T05:45:25;101242.13;;;16.12;67.78
62928;BME280;51070;52.236;-0.892;2023-10-09T05:48:09;101246.66;;;16.12;67.83
62928;BME280;51070;52.236;-0.892;2023-10-09T05:50:37;101254.87;;;16.13;67.77
62928;BME280;51070;52.236;-0.892;2023-10-09T05:53:21;101259.92;;;16.13;67.83
62928;BME280;51070;52.236;-0.892;2023-10-09T05:56:10;101261.48;;;16.12;67.85
62928;BME280;51070;52.236;-0.892;2023-10-09T05:58:55;101263.52;;;16.11;67.98
62928;BME280;51070;52.236;-0.892;2023-10-09T06:01:39;101268.39;;;16.10;67.94
62928;BME280;51070;52.236;-0.892;2023-10-09T06:04:23;101258.80;;;16.08;68.00
62928;BME280;51070;52.236;-0.892;2023-10-09T06:07:07;101240.47;;;16.07;68.10
62928;BME280;51070;52.236;-0.892;2023-10-09T06:09:38;101238.69;;;16.06;68.16
62928;BME280;51070;52.236;-0.892;2023-10-09T06:12:20;101238.13;;;16.04;68.27
62928;BME280;51070;52.236;-0.892;2023-10-09T06:15:07;101242.09;;;16.01;68.49
62928;BME280;51070;52.236;-0.892;2023-10-09T06:17:57;101258.95;;;15.99;68.77
62928;BME280;51070;52.236;-0.892;2023-10-09T06:20:43;101258.74;;;15.96;68.87
62928;BME280;51070;52.236;-0.892;2023-10-09T06:23:31;101264.83;;;15.95;68.94
62928;BME280;51070;52.236;-0.892;2023-10-09T06:26:15;101253.00;;;15.96;69.02
62928;BME280;51070;52.236;-0.892;2023-10-09T06:28:51;101243.06;;;15.97;69.01
62928;BME280;51070;52.236;-0.892;2023-10-09T06:31:37;101252.48;;;15.97;69.16
62928;BME280;51070;52.236;-0.892;2023-10-09T06:34:21;101260.70;;;16.00;69.33
62928;BME280;51070;52.236;-0.892;2023-10-09T06:36:57;101262.34;;;16.02;69.40
62928;BME280;51070;52.236;-0.892;2023-10-09T06:39:28;101264.98;;;16.05;69.51
62928;BME280;51070;52.236;-0.892;2023-10-09T06:42:12;101267.82;;;16.06;69.46
62928;BME280;51070;52.236;-0.892;2023-10-09T06:45:04;101268.21;;;16.08;69.62
62928;BME280;51070;52.236;-0.892;2023-10-09T06:47:53;101267.67;;;16.09;69.59
62928;BME280;51070;52.236;-0.892;2023-10-09T06:50:22;101269.23;;;16.09;69.52
62928;BME280;51070;52.236;-0.892;2023-10-09T06:52:52;101272.21;;;16.09;69.75
62928;BME280;51070;52.236;-0.892;2023-10-09T06:55:36;101278.68;;;16.10;69.78
62928;BME280;51070;52.236;-0.892;2023-10-09T06:58:22;101285.48;;;16.10;69.90
62928;BME280;51070;52.236;-0.892;2023-10-09T07:00:52;101285.52;;;16.11;69.94
62928;BME280;51070;52.236;-0.892;2023-10-09T07:03:32;101284.52;;;16.14;69.98
62928;BME280;51070;52.236;-0.892;2023-10-09T07:06:17;101294.38;;;16.18;70.04
62928;BME280;51070;52.236;-0.892;2023-10-09T07:08:54;101293.36;;;16.21;69.91
62928;BME280;51070;52.236;-0.892;2023-10-09T07:11:35;101294.12;;;16.24;69.88
62928;BME280;51070;52.236;-0.892;2023-10-09T07:14:16;101300.11;;;16.28;69.96
62928;BME280;51070;52.236;-0.892;2023-10-09T07:16:58;101308.59;;;16.33;69.91
62928;BME280;51070;52.236;-0.892;2023-10-09T07:19:30;101316.55;;;16.39;69.85
62928;BME280;51070;52.236;-0.892;2023-10-09T07:22:02;101319.77;;;16.44;69.87
62928;BME280;51070;52.236;-0.892;2023-10-09T07:24:32;101318.48;;;16.50;69.73
62928;BME280;51070;52.236;-0.892;2023-10-09T07:27:08;101320.13;;;16.55;69.50
62928;BME280;51070;52.236;-0.892;2023-10-09T07:29:37;101320.89;;;16.58;69.46
62928;BME280;51070;52.236;-0.892;2023-10-09T07:32:23;101315.03;;;16.61;69.51
62928;BME280;51070;52.236;-0.892;2023-10-09T07:34:49;101315.07;;;16.62;69.51
62928;BME280;51070;52.236;-0.892;2023-10-09T07:37:22;101315.42;;;16.64;69.39
62928;BME280;51070;52.236;-0.892;2023-10-09T07:39:51;101318.39;;;16.62;69.32
62928;BME280;51070;52.236;-0.892;2023-10-09T07:42:26;101314.70;;;16.61;69.37
62928;BME280;51070;52.236;-0.892;2023-10-09T07:44:59;101311.76;;;16.63;69.53
62928;BME280;51070;52.236;-0.892;2023-10-09T07:47:37;101306.09;;;16.68;69.47
62928;BME280;51070;52.236;-0.892;2023-10-09T07:50:35;101303.20;;;16.73;69.36
62928;BME280;51070;52.236;-0.892;2023-10-09T07:53:09;101309.61;;;16.81;69.40
62928;BME280;51070;52.236;-0.892;2023-10-09T07:55:46;101315.02;;;16.91;69.45
62928;BME280;51070;52.236;-0.892;2023-10-09T07:58:21;101320.27;;;17.03;69.35
62928;BME280;51070;52.236;-0.892;2023-10-09T08:00:56;101323.95;;;17.17;69.21
62928;BME280;51070;52.236;-0.892;2023-10-09T08:03:33;101320.17;;;17.32;68.78
62928;BME280;51070;52.236;-0.892;2023-10-09T08:06:01;101337.48;;;17.45;68.41
62928;BME280;51070;52.236;-0.892;2023-10-09T08:08:52;101340.61;;;17.56;68.29
62928;BME280;51070;52.236;-0.892;2023-10-09T08:11:43;101326.08;;;17.67;68.08
62928;BME280;51070;52.236;-0.892;2023-10-09T08:14:12;101333.38;;;17.76;67.64
62928;BME280;51070;52.236;-0.892;2023-10-09T08:16:51;101340.16;;;17.88;67.23
62928;BME280;51070;52.236;-0.892;2023-10-09T08:19:37;101343.29;;;17.99;66.85
62928;BME280;51070;52.236;-0.892;2023-10-09T08:22:21;101345.32;;;18.11;66.52
62928;BME280;51070;52.236;-0.892;2023-10-09T08:24:50;101339.50;;;18.22;66.09
62928;BME280;51070;52.236;-0.892;2023-10-09T08:27:25;101330.14;;;18.30;65.84
62928;BME280;51070;52.236;-0.892;2023-10-09T08:29:58;101331.61;;;18.37;65.85
62928;BME280;51070;52.236;-0.892;2023-10-09T08:32:41;101333.41;;;18.42;65.54
62928;BME280;51070;52.236;-0.892;2023-10-09T08:35:11;101338.70;;;18.47;65.54
62928;BME280;51070;52.236;-0.892;2023-10-09T08:37:58;101338.27;;;18.54;65.33
62928;BME280;51070;52.236;-0.892;2023-10-09T08:40:31;101341.34;;;18.62;65.25
62928;BME280;51070;52.236;-0.892;2023-10-09T08:43:07;101349.81;;;18.71;64.97
62928;BME280;51070;52.236;-0.892;2023-10-09T08:45:37;101348.83;;;18.77;64.77
62928;BME280;51070;52.236;-0.892;2023-10-09T08:48:06;101352.05;;;18.87;64.58
62928;BME280;51070;52.236;-0.892;2023-10-09T08:50:32;101354.59;;;18.95;64.47
62928;BME280;51070;52.236;-0.892;2023-10-09T08:53:00;101349.38;;;19.03;64.23
62928;BME280;51070;52.236;-0.892;2023-10-09T08:55:26;101351.37;;;19.10;63.98
62928;BME280;51070;52.236;-0.892;2023-10-09T08:57:52;101351.42;;;19.18;63.85
62928;BME280;51070;52.236;-0.892;2023-10-09T09:00:18;101352.35;;;19.28;63.64
62928;BME280;51070;52.236;-0.892;2023-10-09T09:02:52;101360.34;;;19.42;63.33
62928;BME280;51070;52.236;-0.892;2023-10-09T09:05:21;101367.66;;;19.60;62.90
62928;BME280;51070;52.236;-0.892;2023-10-09T09:07:47;101363.73;;;19.83;62.44
62928;BME280;51070;52.236;-0.892;2023-10-09T09:10:13;101367.86;;;20.06;61.87
62928;BME280;51070;52.236;-0.892;2023-10-09T09:12:49;101365.12;;;20.24;60.98
62928;BME280;51070;52.236;-0.892;2023-10-09T09:15:27;101352.72;;;20.37;60.80
62928;BME280;51070;52.236;-0.892;2023-10-09T09:18:04;101343.45;;;20.53;60.41
62928;BME280;51070;52.236;-0.892;2023-10-09T09:20:36;101348.38;;;20.69;60.03
62928;BME280;51070;52.236;-0.892;2023-10-09T09:23:11;101350.84;;;20.78;59.71
62928;BME280;51070;52.236;-0.892;2023-10-09T09:25:47;101354.70;;;20.84;59.61
62928;BME280;51070;52.236;-0.892;2023-10-09T09:28:14;101345.39;;;20.91;59.38
62928;BME280;51070;52.236;-0.892;2023-10-09T09:30:47;101348.20;;;20.99;59.21
62928;BME280;51070;52.236;-0.892;2023-10-09T09:33:23;101350.84;;;21.10;59.22
62928;BME280;51070;52.236;-0.892;2023-10-09T09:36:24;101346.80;;;21.24;58.76
62928;BME280;51070;52.236;-0.892;2023-10-09T09:38:57;101343.96;;;21.37;58.61
62928;BME280;51070;52.236;-0.892;2023-10-09T09:41:26;101340.94;;;21.51;58.50
62928;BME280;51070;52.236;-0.892;2023-10-09T09:43:56;101340.70;;;21.70;58.14
62928;BME280;51070;52.236;-0.892;2023-10-09T09:46:23;101353.64;;;21.90;57.97
62928;BME280;51070;52.236;-0.892;2023-10-09T09:49:03;101358.38;;;22.01;57.90
62928;BME280;51070;52.236;-0.892;2023-10-09T09:51:31;101354.13;;;22.05;57.89
62928;BME280;51070;52.236;-0.892;2023-10-09T09:53:57;101351.84;;;22.03;57.65
62928;BME280;51070;52.236;-0.892;2023-10-09T09:56:26;101342.53;;;22.00;57.55
62928;BME280;51070;52.236;-0.892;2023-10-09T09:58:56;101338.86;;;21.96;57.39
62928;BME280;51070;52.236;-0.892;2023-10-09T10:01:29;101335.52;;;21.94;57.60
62928;BME280;51070;52.236;-0.892;2023-10-09T10:04:26;101329.17;;;21.94;57.47
62928;BME280;51070;52.236;-0.892;2023-10-09T10:06:54;101330.08;;;21.86;57.60
62928;BME280;51070;52.236;-0.892;2023-10-09T10:09:40;101331.34;;;21.78;57.75
62928;BME280;51070;52.236;-0.892;2023-10-09T10:12:09;101334.55;;;21.69;57.77
62928;BME280;51070;52.236;-0.892;2023-10-09T10:14:55;101334.20;;;21.65;57.96
62928;BME280;51070;52.236;-0.892;2023-10-09T10:17:25;101331.89;;;21.70;58.12
62928;BME280;51070;52.236;-0.892;2023-10-09T10:20:06;101328.52;;;21.83;57.98
62928;BME280;51070;52.236;-0.892;2023-10-09T10:22:44;101328.38;;;22.43;57.02
62928;BME280;51070;52.236;-0.892;2023-10-09T10:28:24;101346.89;;;23.46;55.23
62928;BME280;51070;52.236;-0.892;2023-10-09T10:31:09;101347.39;;;23.79;54.13
62928;BME280;51070;52.236;-0.892;2023-10-09T10:36:22;101335.98;;;24.64;52.66
62928;BME280;51070;52.236;-0.892;2023-10-09T10:39:05;101337.15;;;24.78;52.11
62928;BME280;51070;52.236;-0.892;2023-10-09T10:41:56;101336.05;;;24.81;51.61
62928;BME280;51070;52.236;-0.892;2023-10-09T10:44:28;101333.80;;;24.78;51.63
62928;BME280;51070;52.236;-0.892;2023-10-09T10:47:01;101334.73;;;24.76;51.61
62928;BME280;51070;52.236;-0.892;2023-10-09T10:49:28;101335.38;;;24.78;51.97
62928;BME280;51070;52.236;-0.892;2023-10-09T10:52:02;101334.58;;;24.83;52.00
62928;BME280;51070;52.236;-0.892;2023-10-09T10:54:43;101330.81;;;24.89;52.06
62928;BME280;51070;52.236;-0.892;2023-10-09T10:57:19;101330.42;;;24.92;52.21
62928;BME280;51070;52.236;-0.892;2023-10-09T10:59:55;101328.48;;;24.92;52.11
62928;BME280;51070;52.236;-0.892;2023-10-09T11:02:44;101325.39;;;24.96;52.30
62928;BME280;51070;52.236;-0.892;2023-10-09T11:05:09;101316.56;;;25.05;52.57
62928;BME280;51070;52.236;-0.892;2023-10-09T11:07:49;101314.50;;;25.21;52.58
62928;BME280;51070;52.236;-0.892;2023-10-09T11:10:24;101312.52;;;25.41;52.57
62928;BME280;51070;52.236;-0.892;2023-10-09T11:12:54;101311.52;;;25.57;51.96
62928;BME280;51070;52.236;-0.892;2023-10-09T11:15:34;101316.55;;;25.52;52.01
62928;BME280;51070;52.236;-0.892;2023-10-09T11:18:14;101314.34;;;25.47;52.16
62928;BME280;51070;52.236;-0.892;2023-10-09T11:20:57;101308.02;;;25.27;52.32
62928;BME280;51070;52.236;-0.892;2023-10-09T11:23:33;101308.98;;;25.05;52.83
62928;BME280;51070;52.236;-0.892;2023-10-09T11:25:59;101312.95;;;24.88;52.99
62928;BME280;51070;52.236;-0.892;2023-10-09T11:28:43;101309.42;;;24.77;53.52
62928;BME280;51070;52.236;-0.892;2023-10-09T11:31:22;101306.07;;;24.67;53.84
62928;BME280;51070;52.236;-0.892;2023-10-09T11:33:48;101304.71;;;24.63;54.14
62928;BME280;51070;52.236;-0.892;2023-10-09T11:36:15;101301.98;;;24.58;54.39
62928;BME280;51070;52.236;-0.892;2023-10-09T11:38:41;101309.14;;;24.62;54.64
62928;BME280;51070;52.236;-0.892;2023-10-09T11:41:17;101315.27;;;24.66;54.75
62928;BME280;51070;52.236;-0.892;2023-10-09T11:43:48;101319.57;;;24.73;54.77
62928;BME280;51070;52.236;-0.892;2023-10-09T11:46:18;101315.83;;;24.74;54.82
62928;BME280;51070;52.236;-0.892;2023-10-09T11:49:09;101319.96;;;24.81;54.92
62928;BME280;51070;52.236;-0.892;2023-10-09T11:51:40;101317.77;;;24.85;54.96
62928;BME280;51070;52.236;-0.892;2023-10-09T11:54:30;101315.83;;;24.85;54.90
62928;BME280;51070;52.236;-0.892;2023-10-09T11:56:57;101313.61;;;24.80;55.14
62928;BME280;51070;52.236;-0.892;2023-10-09T11:59:27;101308.77;;;24.85;55.24
62928;BME280;51070;52.236;-0.892;2023-10-09T12:01:53;101302.43;;;24.94;55.32
62928;BME280;51070;52.236;-0.892;2023-10-09T12:04:20;101296.20;;;24.98;55.27
62928;BME280;51070;52.236;-0.892;2023-10-09T12:06:45;101293.59;;;25.04;55.35
62928;BME280;51070;52.236;-0.892;2023-10-09T12:09:10;101288.40;;;25.08;55.34
62928;BME280;51070;52.236;-0.892;2023-10-09T12:11:49;101285.21;;;25.08;55.20
62928;BME280;51070;52.236;-0.892;2023-10-09T12:14:18;101277.76;;;25.10;55.35
62928;BME280;51070;52.236;-0.892;2023-10-09T12:16:49;101276.09;;;25.14;55.45
62928;BME280;51070;52.236;-0.892;2023-10-09T12:19:15;101271.14;;;25.15;55.49
62928;BME280;51070;52.236;-0.892;2023-10-09T12:21:40;101264.43;;;25.12;55.47
62928;BME280;51070;52.236;-0.892;2023-10-09T12:24:08;101258.93;;;25.14;55.63
62928;BME280;51070;52.236;-0.892;2023-10-09T12:26:37;101253.55;;;25.17;55.55
62928;BME280;51070;52.236;-0.892;2023-10-09T12:29:05;101245.71;;;25.21;55.54
62928;BME280;51070;52.236;-0.892;2023-10-09T12:31:36;101244.66;;;25.20;55.54
62928;BME280;51070;52.236;-0.892;2023-10-09T12:34:02;101245.21;;;25.18;55.57
62928;BME280;51070;52.236;-0.892;2023-10-09T12:36:28;101244.33;;;25.19;55.41
62928;BME280;51070;52.236;-0.892;2023-10-09T12:38:54;101248.94;;;25.19;55.29
62928;BME280;51070;52.236;-0.892;2023-10-09T12:41:24;101245.06;;;25.17;55.36
62928;BME280;51070;52.236;-0.892;2023-10-09T12:43:50;101245.42;;;25.17;55.46
62928;BME280;51070;52.236;-0.892;2023-10-09T12:46:17;101247.16;;;25.19;55.77
62928;BME280;51070;52.236;-0.892;2023-10-09T12:48:44;101251.17;;;25.21;55.49
62928;BME280;51070;52.236;-0.892;2023-10-09T12:51:15;101253.36;;;25.18;55.71
62928;BME280;51070;52.236;-0.892;2023-10-09T12:53:47;101257.42;;;25.19;55.75
62928;BME280;51070;52.236;-0.892;2023-10-09T12:56:26;101257.27;;;25.18;55.84
62928;BME280;51070;52.236;-0.892;2023-10-09T12:59:04;101257.20;;;25.21;55.93
62928;BME280;51070;52.236;-0.892;2023-10-09T13:01:31;101252.46;;;25.28;55.91
62928;BME280;51070;52.236;-0.892;2023-10-09T13:04:11;101243.86;;;25.33;56.03
62928;BME280;51070;52.236;-0.892;2023-10-09T13:06:39;101244.11;;;25.38;56.05
62928;BME280;51070;52.236;-0.892;2023-10-09T13:09:12;101243.84;;;25.42;55.93
62928;BME280;51070;52.236;-0.892;2023-10-09T13:11:42;101242.33;;;25.48;56.02
62928;BME280;51070;52.236;-0.892;2023-10-09T13:14:08;101238.13;;;25.54;55.85
62928;BME280;51070;52.236;-0.892;2023-10-09T13:16:47;101237.13;;;25.61;55.74
62928;BME280;51070;52.236;-0.892;2023-10-09T13:19:16;101233.05;;;25.69;55.66
62928;BME280;51070;52.236;-0.892;2023-10-09T13:21:43;101228.66;;;25.75;55.37
62928;BME280;51070;52.236;-0.892;2023-10-09T13:24:09;101229.23;;;25.74;55.31
62928;BME280;51070;52.236;-0.892;2023-10-09T13:26:47;101229.27;;;25.72;55.39
62928;BME280;51070;52.236;-0.892;2023-10-09T13:29:16;101226.71;;;25.75;55.43